Time;durP1;ratioP1;P1;durP2;ratioP2;P2;SDS_P1;SDS_P2;PMS_P1;PMS_P2;Temp;Humidity;BMP_temperature;BMP_pressure;BME280_temperature;BME280_humidity;BME280_pressure;Samples;Min_cycle;Max_cycle;Signal;HPM_P1;HPM_P2
2023/07/17 00:02:04;;;;;;;5.00;3.30;;;29.30;45.00;;;;;;5068530;28;20503;-78
2023/07/17 00:04:32;;;;;;;3.57;3.27;;;29.30;45.00;;;;;;5071679;28;20508;-80
2023/07/17 00:07:01;;;;;;;3.87;3.57;;;29.30;44.90;;;;;;5068852;28;20408;-79
2023/07/17 00:09:29;;;;;;;4.00;3.60;;;29.30;44.80;;;;;;5060230;28;20429;-78
2023/07/17 00:11:57;;;;;;;5.00;3.37;;;29.20;44.80;;;;;;5052291;28;20541;-78
2023/07/17 00:14:25;;;;;;;4.77;3.80;;;29.20;44.70;;;;;;5052225;28;20445;-78
2023/07/17 00:16:53;;;;;;;5.40;3.70;;;29.30;44.90;;;;;;5067331;28;20533;-78
2023/07/17 00:19:21;;;;;;;4.47;4.03;;;29.30;44.70;;;;;;5071755;28;20516;-78
2023/07/17 00:21:49;;;;;;;5.40;3.93;;;29.30;44.80;;;;;;5056366;28;20520;-78
2023/07/17 00:24:18;;;;;;;7.63;4.30;;;29.20;44.90;;;;;;5052180;28;20917;-78
2023/07/17 00:26:46;;;;;;;7.73;4.47;;;29.20;44.80;;;;;;5052175;28;20449;-78
2023/07/17 00:29:22;;;;;;;5.27;4.30;;;29.20;44.80;;;;;;5060820;28;20458;-78
2023/07/17 00:31:50;;;;;;;7.10;5.10;;;29.20;44.60;;;;;;5061408;28;20533;-79
2023/07/17 00:34:18;;;;;;;4.70;3.67;;;29.20;44.80;;;;;;5070250;28;20454;-78
2023/07/17 00:36:46;;;;;;;5.13;3.90;;;29.10;44.80;;;;;;5065892;28;20455;-78
2023/07/17 00:39:14;;;;;;;7.70;4.50;;;29.20;44.80;;;;;;5051810;28;20996;-79
2023/07/17 00:41:43;;;;;;;4.50;3.90;;;29.10;44.70;;;;;;5059671;28;20532;-79
2023/07/17 00:44:11;;;;;;;4.87;3.50;;;29.10;44.90;;;;;;5059508;28;20434;-77
2023/07/17 00:46:39;;;;;;;6.97;3.70;;;29.10;44.70;;;;;;5050951;28;20435;-78
2023/07/17 00:49:07;;;;;;;5.73;4.10;;;29.10;44.80;;;;;;5070522;28;20434;-78
2023/07/17 00:51:35;;;;;;;4.03;3.63;;;29.10;44.90;;;;;;5066972;28;20519;-78
2023/07/17 00:54:03;;;;;;;5.93;4.20;;;29.10;44.90;;;;;;5060823;28;20536;-80
2023/07/17 00:56:31;;;;;;;4.30;3.60;;;29.10;44.90;;;;;;5060612;28;20476;-79
2023/07/17 00:59:00;;;;;;;5.40;4.87;;;29.10;44.90;;;;;;5071739;28;20560;-80
2023/07/17 01:01:28;;;;;;;4.27;3.97;;;29.10;44.80;;;;;;5071746;28;20464;-79
2023/07/17 01:03:56;;;;;;;5.80;4.60;;;29.10;44.90;;;;;;5052916;28;20443;-79
2023/07/17 01:06:27;;;;;;;7.33;4.70;;;29.10;45.00;;;;;;5066173;28;20525;-79
2023/07/17 01:08:54;;;;;;;6.03;5.10;;;29.00;45.00;;;;;;5068979;28;20455;-78
2023/07/17 01:11:23;;;;;;;5.30;4.70;;;29.10;45.00;;;;;;5068664;28;20483;-78
2023/07/17 01:13:51;;;;;;;7.70;5.67;;;29.00;45.00;;;;;;5074617;28;20463;-78
2023/07/17 01:16:21;;;;;;;8.40;5.90;;;29.00;45.00;;;;;;5076152;28;20484;-78
2023/07/17 01:18:49;;;;;;;5.80;5.30;;;29.00;45.10;;;;;;5075488;28;20479;-78
2023/07/17 01:21:18;;;;;;;6.70;6.03;;;29.00;45.10;;;;;;5068654;28;20937;-78
2023/07/17 01:23:49;;;;;;;7.60;6.90;;;29.00;45.10;;;;;;5074793;28;20453;-78
2023/07/17 01:26:17;;;;;;;15.13;6.80;;;29.00;45.00;;;;;;5064291;28;20449;-79
2023/07/17 01:28:45;;;;;;;8.37;7.37;;;29.00;45.20;;;;;;5074999;28;20444;-78
2023/07/17 01:31:14;;;;;;;15.70;7.70;;;29.00;45.10;;;;;;5067262;28;20413;-78
2023/07/17 01:33:42;;;;;;;10.73;8.77;;;28.90;45.10;;;;;;5067662;28;20435;-77
2023/07/17 01:36:11;;;;;;;14.07;9.50;;;28.90;45.20;;;;;;5054368;28;20401;-77
2023/07/17 01:38:39;;;;;;;14.10;9.43;;;28.90;45.20;;;;;;5056722;28;20513;-77
2023/07/17 01:41:08;;;;;;;14.00;9.90;;;28.90;45.00;;;;;;5062562;28;20533;-78
2023/07/17 01:43:36;;;;;;;15.07;9.67;;;28.90;45.30;;;;;;5054038;28;20470;-77
2023/07/17 01:46:04;;;;;;;14.53;11.53;;;28.90;45.20;;;;;;5064272;28;20652;-77
2023/07/17 01:48:34;;;;;;;13.43;10.57;;;28.90;45.30;;;;;;5060153;28;20457;-77
2023/07/17 01:51:02;;;;;;;14.87;10.93;;;28.90;45.30;;;;;;5054020;28;20472;-78
2023/07/17 01:53:29;;;;;;;15.23;11.40;;;28.90;46.00;;;;;;5055066;28;20496;-77
2023/07/17 01:55:57;;;;;;;12.63;9.43;;;28.90;45.40;;;;;;5068516;28;20428;-77
2023/07/17 01:58:26;;;;;;;11.93;10.30;;;28.80;45.30;;;;;;5065185;28;20551;-77
2023/07/17 02:00:54;;;;;;;13.33;10.40;;;28.80;45.30;;;;;;5055617;28;20508;-78
2023/07/17 02:03:22;;;;;;;14.37;11.13;;;28.90;45.30;;;;;;5058754;28;20412;-79
2023/07/17 02:05:50;;;;;;;15.00;10.53;;;28.80;45.40;;;;;;5056823;28;20504;-78
2023/07/17 02:08:18;;;;;;;13.63;10.13;;;28.80;45.50;;;;;;5053453;28;20516;-80
2023/07/17 02:10:49;;;;;;;12.27;9.90;;;28.80;45.50;;;;;;5059719;28;20532;-78
2023/07/17 02:13:16;;;;;;;14.27;10.07;;;28.80;45.50;;;;;;5066837;28;20446;-78
2023/07/17 02:15:46;;;;;;;12.63;9.83;;;28.80;45.40;;;;;;5066234;28;20535;-78
2023/07/17 02:18:14;;;;;;;11.07;8.40;;;28.70;45.50;;;;;;5054581;28;20539;-78
2023/07/17 02:20:42;;;;;;;9.53;8.17;;;28.80;45.60;;;;;;5053314;28;20468;-78
2023/07/17 02:23:10;;;;;;;12.00;7.97;;;28.70;45.70;;;;;;5063713;28;20448;-78
2023/07/17 02:25:38;;;;;;;9.43;8.40;;;28.80;45.80;;;;;;5065338;28;20417;-78
2023/07/17 02:28:07;;;;;;;8.87;7.50;;;28.80;45.70;;;;;;5064788;28;20513;-78
2023/07/17 02:30:35;;;;;;;9.87;7.70;;;28.80;45.80;;;;;;5057223;28;20550;-78
2023/07/17 02:33:04;;;;;;;9.70;7.10;;;28.70;45.70;;;;;;5053314;28;20554;-78
2023/07/17 02:35:32;;;;;;;8.77;6.80;;;28.70;45.90;;;;;;5065512;28;20508;-78
2023/07/17 02:38:01;;;;;;;11.03;7.77;;;28.70;46.10;;;;;;5054107;28;20533;-78
2023/07/17 02:40:29;;;;;;;10.73;7.13;;;28.70;46.00;;;;;;5051795;28;20425;-78
2023/07/17 02:42:57;;;;;;;8.47;6.60;;;28.70;46.10;;;;;;5058413;28;20533;-78
2023/07/17 02:45:25;;;;;;;6.47;5.83;;;28.60;46.20;;;;;;5068738;28;20450;-78
2023/07/17 02:47:52;;;;;;;6.87;6.17;;;28.60;46.20;;;;;;5071120;28;20444;-77
2023/07/17 02:50:22;;;;;;;9.77;6.53;;;28.60;46.20;;;;;;5063335;28;20408;-78
2023/07/17 02:52:50;;;;;;;7.93;6.17;;;28.60;46.40;;;;;;5072573;28;20878;-78
2023/07/17 02:55:19;;;;;;;9.00;6.87;;;28.60;46.50;;;;;;5071644;28;20470;-78
2023/07/17 02:57:46;;;;;;;6.90;5.83;;;28.60;46.60;;;;;;5056748;28;20463;-78
2023/07/17 03:00:15;;;;;;;6.83;6.13;;;28.60;46.70;;;;;;5052616;28;20547;-78
2023/07/17 03:02:44;;;;;;;10.73;6.30;;;28.60;46.60;;;;;;5061883;28;20454;-78
2023/07/17 03:05:12;;;;;;;7.93;5.63;;;28.60;46.90;;;;;;5060088;28;20396;-77
2023/07/17 03:07:42;;;;;;;7.87;6.33;;;28.60;47.00;;;;;;5066671;28;20413;-78
2023/07/17 03:10:10;;;;;;;7.00;6.10;;;28.60;46.90;;;;;;5053120;28;20437;-78
2023/07/17 03:12:38;;;;;;;8.70;6.43;;;28.60;46.90;;;;;;5052510;28;20434;-78
2023/07/17 03:15:08;;;;;;;7.20;5.70;;;28.60;47.00;;;;;;5067652;28;20433;-76
2023/07/17 03:17:35;;;;;;;9.60;5.50;;;28.60;47.00;;;;;;5071578;28;20442;-78
2023/07/17 03:20:06;;;;;;;6.67;5.70;;;28.60;47.10;;;;;;5054458;28;20543;-78
2023/07/17 03:22:33;;;;;;;7.53;6.27;;;28.60;47.20;;;;;;5061177;28;20497;-78
2023/07/17 03:25:05;;;;;;;7.50;5.00;;;28.60;47.10;;;;;;5060893;28;20420;-78
2023/07/17 03:27:32;;;;;;;7.37;5.67;;;28.60;47.20;;;;;;5072100;28;20424;-78
2023/07/17 03:30:00;;;;;;;5.80;5.20;;;28.60;47.80;;;;;;5071777;28;20448;-78
2023/07/17 03:32:32;;;;;;;5.87;5.13;;;28.60;47.40;;;;;;5059054;28;20435;-78
2023/07/17 03:35:00;;;;;;;7.10;5.33;;;28.60;47.40;;;;;;5070594;28;20440;-78
2023/07/17 03:37:28;;;;;;;6.43;5.40;;;28.60;47.40;;;;;;5070389;28;20445;-78
2023/07/17 03:39:56;;;;;;;6.93;4.97;;;28.60;47.40;;;;;;5070405;28;20530;-78
2023/07/17 03:42:25;;;;;;;7.87;5.60;;;28.60;47.40;;;;;;5053985;28;21026;-78
2023/07/17 03:44:53;;;;;;;5.90;5.30;;;28.60;47.50;;;;;;5070628;28;20532;-78
2023/07/17 03:47:21;;;;;;;5.37;4.87;;;28.60;47.40;;;;;;5071221;28;20507;-78
2023/07/17 03:49:49;;;;;;;5.40;4.90;;;28.60;47.50;;;;;;5070437;28;20550;-78
2023/07/17 03:52:17;;;;;;;6.47;5.10;;;28.60;47.60;;;;;;5071669;28;20461;-78
2023/07/17 03:54:45;;;;;;;5.70;5.00;;;28.60;47.60;;;;;;5071339;28;20899;-78
2023/07/17 03:57:13;;;;;;;5.27;4.77;;;28.60;47.50;;;;;;5071531;28;20525;-78
2023/07/17 03:59:50;;;;;;;5.27;4.77;;;28.50;47.50;;;;;;5071536;28;20452;-77
2023/07/17 04:02:18;;;;;;;4.87;4.47;;;28.60;47.70;;;;;;5071272;28;20894;-78
2023/07/17 04:04:46;;;;;;;5.70;4.70;;;28.60;47.70;;;;;;5066711;28;20513;-77
2023/07/17 04:07:14;;;;;;;5.03;4.53;;;28.60;47.80;;;;;;5056268;28;20463;-78
2023/07/17 04:09:41;;;;;;;7.30;4.73;;;28.60;47.80;;;;;;5051446;28;20480;-78
2023/07/17 04:12:11;;;;;;;5.93;4.30;;;28.50;47.70;;;;;;5051589;28;20882;-78
2023/07/17 04:14:39;;;;;;;5.23;4.00;;;28.50;47.70;;;;;;5051373;28;20447;-78
2023/07/17 04:17:10;;;;;;;5.17;4.67;;;28.50;47.70;;;;;;5068297;28;20443;-78
2023/07/17 04:19:38;;;;;;;5.67;4.40;;;28.50;47.80;;;;;;5066235;28;20474;-78
2023/07/17 04:22:06;;;;;;;5.23;4.63;;;28.50;47.80;;;;;;5052096;28;20486;-78
2023/07/17 04:24:34;;;;;;;5.03;3.93;;;28.60;47.70;;;;;;5070104;28;20522;-78
2023/07/17 04:27:03;;;;;;;5.23;4.03;;;28.50;47.80;;;;;;5068645;28;20466;-78
2023/07/17 04:29:31;;;;;;;6.97;4.30;;;28.50;47.80;;;;;;5065960;28;20466;-78
2023/07/17 04:31:58;;;;;;;4.87;4.47;;;28.50;47.80;;;;;;5066801;28;20411;-77
2023/07/17 04:34:30;;;;;;;7.17;4.73;;;28.50;47.90;;;;;;5070731;28;20412;-78
2023/07/17 04:36:58;;;;;;;5.63;4.03;;;28.50;47.90;;;;;;5063627;28;20525;-78
2023/07/17 04:39:26;;;;;;;4.97;4.47;;;28.50;47.90;;;;;;5052443;28;20495;-78
2023/07/17 04:41:57;;;;;;;5.50;4.33;;;28.50;47.90;;;;;;5059333;28;20438;-78
2023/07/17 04:44:26;;;;;;;4.83;4.37;;;28.50;47.80;;;;;;5058473;28;20457;-79
2023/07/17 04:46:54;;;;;;;4.33;3.93;;;28.50;47.90;;;;;;5056743;28;20504;-78
2023/07/17 04:49:22;;;;;;;4.53;4.13;;;28.50;47.90;;;;;;5062593;28;20436;-78
2023/07/17 04:51:51;;;;;;;4.03;3.70;;;28.50;48.00;;;;;;5056599;28;20474;-78
2023/07/17 04:54:19;;;;;;;5.87;4.60;;;28.50;47.80;;;;;;5060405;28;20507;-78
2023/07/17 04:56:47;;;;;;;4.93;4.20;;;28.50;47.90;;;;;;5069151;28;20554;-78
2023/07/17 04:59:16;;;;;;;4.00;3.70;;;28.50;48.00;;;;;;5052924;28;20460;-78
2023/07/17 05:01:44;;;;;;;4.43;3.73;;;28.40;48.00;;;;;;5062471;28;20454;-78
2023/07/17 05:04:12;;;;;;;6.30;3.90;;;28.50;48.10;;;;;;5054306;28;20421;-77
2023/07/17 05:06:40;;;;;;;3.80;3.50;;;28.50;47.90;;;;;;5066102;28;20471;-78
2023/07/17 05:09:10;;;;;;;6.67;3.30;;;28.50;47.90;;;;;;5069721;28;20463;-77
2023/07/17 05:11:39;;;;;;;4.57;4.17;;;28.40;48.10;;;;;;5058366;28;20430;-78
2023/07/17 05:14:06;;;;;;;4.93;3.20;;;28.40;47.90;;;;;;5061541;28;20467;-78
2023/07/17 05:16:34;;;;;;;4.57;3.50;;;28.40;48.00;;;;;;5062171;28;20541;-78
2023/07/17 05:19:02;;;;;;;3.87;3.57;;;28.40;48.00;;;;;;5057311;28;20433;-78
2023/07/17 05:21:30;;;;;;;3.73;3.10;;;28.40;48.10;;;;;;5049883;28;20557;-78
2023/07/17 05:23:58;;;;;;;4.63;3.30;;;28.50;47.90;;;;;;5050630;28;20982;-78
2023/07/17 05:26:27;;;;;;;5.67;3.67;;;28.40;47.90;;;;;;5069061;28;20462;-78
2023/07/17 05:28:55;;;;;;;3.67;3.20;;;28.40;48.10;;;;;;5070658;28;20555;-78
2023/07/17 05:31:23;;;;;;;3.30;2.83;;;28.40;48.10;;;;;;5062867;28;20502;-78
2023/07/17 05:33:52;;;;;;;3.83;2.93;;;28.40;48.00;;;;;;5070770;28;20443;-78
2023/07/17 05:36:20;;;;;;;6.53;3.43;;;28.40;48.00;;;;;;5061031;28;20405;-78
2023/07/17 05:38:48;;;;;;;3.10;2.90;;;28.40;48.00;;;;;;5065392;28;20429;-78
2023/07/17 05:41:16;;;;;;;8.20;3.50;;;28.40;48.50;;;;;;5058554;28;20558;-78
2023/07/17 05:43:45;;;;;;;5.23;3.93;;;28.40;48.00;;;;;;5050453;28;20418;-78
2023/07/17 05:46:13;;;;;;;6.93;3.70;;;27.70;46.60;;;;;;5057351;28;20412;-77
2023/07/17 05:48:41;;;;;;;5.47;3.13;;;27.10;49.00;;;;;;5067877;28;20481;-77
2023/07/17 05:51:09;;;;;;;6.17;4.03;;;26.50;50.70;;;;;;5068883;28;20417;-77
2023/07/17 05:53:37;;;;;;;8.50;3.70;;;26.20;50.90;;;;;;5049549;28;20452;-78
2023/07/17 05:56:06;;;;;;;4.67;3.03;;;25.70;52.00;;;;;;5057838;28;20404;-78
2023/07/17 05:58:33;;;;;;;5.70;4.37;;;25.80;53.00;;;;;;5062416;28;20492;-77
2023/07/17 06:01:02;;;;;;;7.30;5.30;;;25.60;52.10;;;;;;5061526;28;20504;-77
2023/07/17 06:03:30;;;;;;;8.40;4.10;;;25.60;51.90;;;;;;5055694;28;20484;-77
2023/07/17 06:05:58;;;;;;;7.47;3.33;;;25.10;53.60;;;;;;5059787;28;20460;-77
2023/07/17 06:08:26;;;;;;;6.50;3.77;;;25.00;53.80;;;;;;5058462;28;20480;-77
2023/07/17 06:10:54;;;;;;;3.83;2.90;;;24.90;53.40;;;;;;5059266;28;20529;-77
2023/07/17 06:13:22;;;;;;;3.63;3.20;;;24.80;54.10;;;;;;5072775;28;20503;-77
2023/07/17 06:15:51;;;;;;;8.37;2.87;;;25.20;56.00;;;;;;5065275;28;20425;-78
2023/07/17 06:18:20;;;;;;;5.50;2.93;;;25.90;53.70;;;;;;5073112;28;20480;-77
2023/07/17 06:20:48;;;;;;;2.90;2.70;;;26.40;52.30;;;;;;5064652;28;20985;-77
2023/07/17 06:23:17;;;;;;;2.80;2.60;;;26.70;51.40;;;;;;5066801;28;20444;-77
2023/07/17 06:25:45;;;;;;;3.03;2.80;;;27.00;50.70;;;;;;5072469;28;20420;-77
2023/07/17 06:28:14;;;;;;;4.10;2.67;;;27.20;50.20;;;;;;5057176;28;20445;-77
2023/07/17 06:30:45;;;;;;;3.30;3.00;;;27.40;49.70;;;;;;5060684;28;20488;-77
2023/07/17 06:33:13;;;;;;;5.53;2.60;;;27.50;49.40;;;;;;5060965;28;20462;-77
2023/07/17 06:35:44;;;;;;;4.10;2.30;;;27.60;49.20;;;;;;5064892;28;20526;-77
2023/07/17 06:38:12;;;;;;;2.93;2.63;;;27.70;48.80;;;;;;5072192;28;20436;-78
2023/07/17 06:40:40;;;;;;;3.23;2.93;;;27.80;48.70;;;;;;5068459;28;20547;-77
2023/07/17 06:43:08;;;;;;;4.00;2.80;;;27.90;48.60;;;;;;5071836;28;20408;-78
2023/07/17 06:45:36;;;;;;;2.70;2.30;;;28.00;48.40;;;;;;5061488;28;20438;-78
2023/07/17 06:48:05;;;;;;;4.80;2.63;;;28.10;48.40;;;;;;5052775;28;20468;-78
2023/07/17 06:50:33;;;;;;;3.70;2.43;;;28.10;48.10;;;;;;5059985;28;20965;-78
2023/07/17 06:53:02;;;;;;;3.53;2.70;;;28.20;48.20;;;;;;5058005;28;20420;-78
2023/07/17 06:55:30;;;;;;;2.67;2.27;;;28.20;48.10;;;;;;5064497;28;20440;-78
2023/07/17 06:57:58;;;;;;;3.30;2.40;;;28.20;47.90;;;;;;5066528;28;20889;-78
2023/07/17 07:00:27;;;;;;;4.40;2.60;;;28.30;47.80;;;;;;5070193;28;20511;-79
2023/07/17 07:02:54;;;;;;;3.30;2.73;;;28.30;47.80;;;;;;5072356;28;20424;-78
2023/07/17 07:05:22;;;;;;;3.93;2.73;;;28.40;47.70;;;;;;5072472;28;20420;-78
2023/07/17 07:07:50;;;;;;;3.27;2.43;;;28.40;47.50;;;;;;5067916;28;21036;-78
2023/07/17 07:10:20;;;;;;;2.60;2.40;;;28.40;47.50;;;;;;5052834;28;20510;-78
2023/07/17 07:12:47;;;;;;;4.53;2.43;;;28.50;47.40;;;;;;5063236;28;20469;-78
2023/07/17 07:15:15;;;;;;;3.90;2.70;;;28.60;47.30;;;;;;5064359;28;20515;-77
2023/07/17 07:17:43;;;;;;;3.67;2.60;;;28.60;47.20;;;;;;5054008;28;20898;-79
2023/07/17 07:20:12;;;;;;;5.70;2.87;;;28.60;47.10;;;;;;5067528;28;20437;-80
2023/07/17 07:22:40;;;;;;;7.30;3.00;;;28.60;47.00;;;;;;5061054;28;20484;-78
2023/07/17 07:25:09;;;;;;;6.43;2.57;;;28.70;47.00;;;;;;5052216;28;20437;-78
2023/07/17 07:27:38;;;;;;;5.93;2.60;;;28.80;47.00;;;;;;5054106;28;20443;-79
2023/07/17 07:30:07;;;;;;;2.80;2.60;;;28.80;46.90;;;;;;5071124;28;21040;-77
2023/07/17 07:32:35;;;;;;;3.03;2.73;;;28.90;47.00;;;;;;5071921;28;20477;-79
2023/07/17 07:35:03;;;;;;;3.70;3.07;;;28.90;47.40;;;;;;5072626;28;20430;-79
2023/07/17 07:37:31;;;;;;;4.13;2.60;;;28.90;46.60;;;;;;5073275;28;20533;-78
2023/07/17 07:39:59;;;;;;;6.97;2.90;;;28.90;46.40;;;;;;5071188;28;20608;-78
2023/07/17 07:42:27;;;;;;;3.63;2.80;;;29.00;46.40;;;;;;5072731;28;20535;-78
2023/07/17 07:44:56;;;;;;;3.23;2.90;;;29.00;46.50;;;;;;5069346;28;20478;-76
2023/07/17 07:47:24;;;;;;;3.63;2.80;;;29.00;46.30;;;;;;5066886;28;20457;-78
2023/07/17 07:49:52;;;;;;;4.07;3.20;;;29.10;46.40;;;;;;5079206;22;20456;-79
2023/07/17 07:52:20;;;;;;;4.47;2.90;;;29.20;46.40;;;;;;5061998;28;20427;-79
2023/07/17 07:54:48;;;;;;;2.70;2.50;;;29.20;46.10;;;;;;5054470;28;20415;-77
2023/07/17 07:57:16;;;;;;;3.30;3.00;;;29.20;45.70;;;;;;5051949;28;20492;-78
2023/07/17 07:59:44;;;;;;;5.70;3.20;;;29.30;45.80;;;;;;5051499;28;21135;-78
2023/07/17 08:02:14;;;;;;;5.13;2.83;;;29.30;45.90;;;;;;5050320;28;20558;-78
2023/07/17 08:04:42;;;;;;;3.33;3.00;;;29.40;46.00;;;;;;5061011;28;20442;-79
2023/07/17 08:07:09;;;;;;;2.70;2.50;;;29.40;45.70;;;;;;5052789;28;20815;-78
2023/07/17 08:09:38;;;;;;;4.37;3.30;;;29.40;45.70;;;;;;5060231;28;20523;-78
2023/07/17 08:12:07;;;;;;;7.67;3.10;;;29.50;45.70;;;;;;5049737;28;20422;-79
2023/07/17 08:14:37;;;;;;;6.23;2.77;;;29.50;45.50;;;;;;5053190;28;20417;-79
2023/07/17 08:17:07;;;;;;;5.57;3.10;;;29.50;45.40;;;;;;5062068;28;20448;-79
2023/07/17 08:19:36;;;;;;;3.07;2.80;;;29.50;45.00;;;;;;5049352;28;20495;-81
2023/07/17 08:22:05;;;;;;;3.13;2.60;;;29.50;44.90;;;;;;5048986;28;20522;-80
2023/07/17 08:24:33;;;;;;;8.97;2.70;;;29.50;45.00;;;;;;5050067;28;20425;-80
2023/07/17 08:27:01;;;;;;;6.03;3.13;;;29.50;45.10;;;;;;5050463;28;20471;-80
2023/07/17 08:29:29;;;;;;;6.47;3.23;;;29.50;45.30;;;;;;5051605;28;20524;-80
2023/07/17 08:31:57;;;;;;;3.20;2.43;;;29.60;44.60;;;;;;5055860;28;20451;-80
2023/07/17 08:34:26;;;;;;;3.33;2.57;;;29.70;44.40;;;;;;5059437;28;20471;-80
2023/07/17 08:36:55;;;;;;;3.50;2.90;;;29.70;44.30;;;;;;5052804;28;20508;-80
2023/07/17 08:39:25;;;;;;;5.73;3.13;;;29.70;44.00;;;;;;5060299;28;20553;-80
2023/07/17 08:41:53;;;;;;;3.97;3.43;;;29.70;44.00;;;;;;5060955;28;20543;-80
2023/07/17 08:44:21;;;;;;;6.00;3.57;;;29.70;44.10;;;;;;5063677;28;20436;-79
2023/07/17 08:46:49;;;;;;;4.53;3.30;;;29.80;44.00;;;;;;5057872;28;20514;-79
2023/07/17 08:49:18;;;;;;;4.13;3.37;;;29.90;43.50;;;;;;5060408;28;20524;-80
2023/07/17 08:51:47;;;;;;;6.03;4.13;;;29.90;43.50;;;;;;5055125;28;20461;-80
2023/07/17 08:54:17;;;;;;;4.10;3.70;;;29.90;43.20;;;;;;5058650;28;20429;-77
2023/07/17 08:56:49;;;;;;;3.67;3.20;;;29.80;43.30;;;;;;5055531;28;20496;-82
2023/07/17 08:59:18;;;;;;;4.47;3.70;;;29.80;43.20;;;;;;5067179;28;20464;-78
2023/07/17 09:01:45;;;;;;;4.33;3.70;;;29.80;43.20;;;;;;5063071;28;20533;-79
2023/07/17 09:04:14;;;;;;;5.50;3.80;;;29.90;43.20;;;;;;5063552;28;20431;-78
2023/07/17 09:06:42;;;;;;;8.50;4.30;;;30.00;43.20;;;;;;5069584;28;20451;-80
2023/07/17 09:09:11;;;;;;;10.63;4.67;;;30.00;42.80;;;;;;5058104;28;20437;-79
2023/07/17 09:11:40;;;;;;;4.97;3.70;;;30.10;43.10;;;;;;5046872;28;20437;-79
2023/07/17 09:14:08;;;;;;;6.33;3.83;;;30.00;42.90;;;;;;5047163;28;20447;-79
2023/07/17 09:16:36;;;;;;;4.53;3.70;;;30.00;43.20;;;;;;5052166;28;20409;-79
2023/07/17 09:19:05;;;;;;;5.90;4.00;;;30.10;43.20;;;;;;5047952;28;20827;-80
2023/07/17 09:21:33;;;;;;;5.60;4.30;;;30.20;43.00;;;;;;5051558;28;20450;-79
2023/07/17 09:24:01;;;;;;;7.33;3.90;;;30.20;42.90;;;;;;5051431;28;20500;-79
2023/07/17 09:26:30;;;;;;;9.10;3.90;;;30.20;43.00;;;;;;5048532;28;20445;-79
2023/07/17 09:29:00;;;;;;;6.40;4.50;;;30.30;42.80;;;;;;5050748;28;20513;-79
2023/07/17 09:31:29;;;;;;;4.73;4.00;;;30.20;42.70;;;;;;5054417;28;20549;-79
2023/07/17 09:33:58;;;;;;;7.47;3.50;;;30.30;42.80;;;;;;5057159;28;20444;-79
2023/07/17 09:36:26;;;;;;;8.80;3.80;;;30.40;43.10;;;;;;5055665;28;20449;-79
2023/07/17 09:38:54;;;;;;;5.50;3.60;;;30.50;42.60;;;;;;5057402;28;20572;-80
2023/07/17 09:41:23;;;;;;;10.40;3.53;;;30.50;42.50;;;;;;5056555;28;20434;-82
2023/07/17 09:43:53;;;;;;;4.67;4.20;;;30.60;42.60;;;;;;5056152;28;20560;-79
2023/07/17 09:46:22;;;;;;;7.10;3.60;;;30.50;42.50;;;;;;5049510;28;20432;-79
2023/07/17 09:48:51;;;;;;;5.33;3.50;;;30.60;42.70;;;;;;5054582;28;20468;-79
2023/07/17 09:51:19;;;;;;;3.90;3.47;;;30.70;42.30;;;;;;5055998;28;20586;-80
2023/07/17 09:53:47;;;;;;;6.60;3.50;;;30.80;42.50;;;;;;5056471;28;20413;-79
2023/07/17 09:56:16;;;;;;;6.40;3.77;;;30.90;42.00;;;;;;5055347;28;21050;-79
2023/07/17 09:58:46;;;;;;;4.63;3.33;;;30.80;41.90;;;;;;5052364;28;20490;-79
2023/07/17 10:01:15;;;;;;;4.50;3.40;;;30.70;42.00;;;;;;5057658;28;20410;-80
2023/07/17 10:03:47;;;;;;;7.20;3.63;;;30.70;42.10;;;;;;5055372;28;20506;-79
2023/07/17 10:06:16;;;;;;;3.17;2.90;;;30.60;42.20;;;;;;5054766;28;20486;-80
2023/07/17 10:08:46;;;;;;;9.47;3.67;;;30.80;42.70;;;;;;5053791;28;20549;-81
2023/07/17 10:11:15;;;;;;;4.20;3.60;;;30.90;42.60;;;;;;5057370;28;20459;-82
2023/07/17 10:13:44;;;;;;;5.17;4.10;;;31.00;42.40;;;;;;5056505;28;20462;-81
2023/07/17 10:16:12;;;;;;;4.00;3.37;;;31.00;42.30;;;;;;5056021;28;20484;-81
2023/07/17 10:18:49;;;;;;;9.73;3.93;;;31.00;42.40;;;;;;5054814;28;20470;-82
2023/07/17 10:21:17;;;;;;;5.10;3.50;;;31.20;42.60;;;;;;5054565;28;20426;-82
2023/07/17 10:23:49;;;;;;;5.20;3.57;;;31.30;42.50;;;;;;5054318;28;20470;-81
2023/07/17 10:26:17;;;;;;;6.57;3.83;;;31.30;42.30;;;;;;5050102;28;20469;-81
2023/07/17 10:28:48;;;;;;;4.60;3.63;;;31.30;42.30;;;;;;5054132;28;20489;-81
2023/07/17 10:31:20;;;;;;;3.50;3.20;;;31.50;42.30;;;;;;5056608;28;20516;-81
2023/07/17 10:33:50;;;;;;;5.87;3.57;;;31.70;42.10;;;;;;5057030;28;20431;-81
2023/07/17 10:36:18;;;;;;;3.30;3.00;;;31.90;41.80;;;;;;5061635;28;20435;-82
2023/07/17 10:38:50;;;;;;;3.30;3.00;;;32.00;41.70;;;;;;5064881;28;20461;-82
2023/07/17 10:41:25;;;;;;;4.67;2.83;;;32.10;41.50;;;;;;5057104;28;20413;-81
2023/07/17 10:43:54;;;;;;;3.83;3.37;;;32.00;41.40;;;;;;5053145;28;20537;-81
2023/07/17 10:46:42;;;;;;;3.50;3.20;;;31.80;41.50;;;;;;5052912;28;20441;-82
2023/07/17 10:49:12;;;;;;;3.47;3.10;;;31.70;41.90;;;;;;5063402;28;20496;-81
2023/07/17 10:51:43;;;;;;;3.27;3.00;;;31.60;42.20;;;;;;5056355;28;20454;-81
2023/07/17 10:54:12;;;;;;;5.00;3.07;;;31.50;42.90;;;;;;5048733;28;20434;-81
2023/07/17 10:56:41;;;;;;;5.40;3.43;;;31.50;43.20;;;;;;5068353;28;20524;-82
2023/07/17 10:59:09;;;;;;;5.27;3.27;;;31.40;43.40;;;;;;5060835;28;20494;-82
2023/07/17 11:01:36;;;;;;;3.97;3.60;;;31.40;43.60;;;;;;5059539;28;20405;-83
2023/07/17 11:04:07;;;;;;;3.67;3.37;;;31.30;43.60;;;;;;5057697;28;20476;-83
2023/07/17 11:06:36;;;;;;;5.07;3.40;;;31.30;43.90;;;;;;5056197;28;20438;-82
2023/07/17 11:09:04;;;;;;;4.20;3.40;;;31.30;43.70;;;;;;5066408;28;20544;-82
2023/07/17 11:11:32;;;;;;;13.50;3.90;;;31.30;43.90;;;;;;5060674;28;20594;-81
2023/07/17 11:14:00;;;;;;;11.80;3.90;;;31.40;44.00;;;;;;5064150;28;20463;-81
2023/07/17 11:16:29;;;;;;;5.53;3.50;;;31.30;44.10;;;;;;5051303;28;20429;-80
2023/07/17 11:18:57;;;;;;;5.53;4.00;;;31.40;44.10;;;;;;5054190;28;20540;-81
2023/07/17 11:21:25;;;;;;;4.00;3.50;;;31.40;44.00;;;;;;5059806;28;20935;-80
2023/07/17 11:23:55;;;;;;;3.73;3.10;;;31.40;44.10;;;;;;5075148;28;20477;-82
2023/07/17 11:26:24;;;;;;;8.13;3.50;;;31.50;44.30;;;;;;5061985;28;20471;-82
2023/07/17 11:28:53;;;;;;;3.90;3.50;;;31.60;44.60;;;;;;5055678;28;20564;-82
2023/07/17 11:31:21;;;;;;;4.50;3.40;;;31.80;44.60;;;;;;5056373;28;20439;-81
2023/07/17 11:33:50;;;;;;;3.50;3.30;;;31.90;43.70;;;;;;5057883;28;20430;-81
2023/07/17 11:36:18;;;;;;;4.80;3.43;;;31.80;43.60;;;;;;5061684;28;20478;-81
2023/07/17 11:38:46;;;;;;;7.93;3.90;;;31.80;43.80;;;;;;5055892;28;20549;-82
2023/07/17 11:41:16;;;;;;;3.77;3.47;;;31.80;43.90;;;;;;5054992;28;20457;-81
2023/07/17 11:43:44;;;;;;;10.20;3.23;;;31.70;44.00;;;;;;5056358;28;20467;-82
2023/07/17 11:46:12;;;;;;;3.80;3.40;;;31.60;44.30;;;;;;5056260;28;20442;-81
2023/07/17 11:48:43;;;;;;;10.90;3.70;;;31.60;44.30;;;;;;5056282;28;20466;-82
2023/07/17 11:51:10;;;;;;;4.27;3.20;;;31.60;44.50;;;;;;5055821;28;20427;-82
2023/07/17 11:53:38;;;;;;;6.03;3.07;;;31.60;44.50;;;;;;5050188;28;20438;-81
2023/07/17 11:56:06;;;;;;;9.00;3.67;;;31.60;44.50;;;;;;5051446;28;20470;-81
2023/07/17 11:58:36;;;;;;;3.83;3.43;;;31.60;44.50;;;;;;5057180;28;20457;-81
2023/07/17 12:01:08;;;;;;;3.57;2.90;;;31.50;44.60;;;;;;5061506;28;20446;-81
2023/07/17 12:03:36;;;;;;;4.90;3.30;;;31.50;44.70;;;;;;5052004;28;20543;-81
2023/07/17 12:06:04;;;;;;;4.70;3.13;;;31.50;44.80;;;;;;5056459;28;20528;-81
2023/07/17 12:08:32;;;;;;;3.90;3.60;;;31.50;44.90;;;;;;5063467;28;20498;-81
2023/07/17 12:11:00;;;;;;;3.60;3.30;;;31.60;44.90;;;;;;5049437;28;20993;-81
2023/07/17 12:13:27;;;;;;;4.10;3.53;;;31.60;45.00;;;;;;5059629;28;20506;-82
2023/07/17 12:15:56;;;;;;;2.90;2.70;;;31.60;45.00;;;;;;5062624;28;20537;-82
2023/07/17 12:18:24;;;;;;;6.23;3.23;;;31.50;45.00;;;;;;5050849;28;20468;-82
2023/07/17 12:20:52;;;;;;;3.93;3.53;;;31.60;45.50;;;;;;5051180;28;20474;-82
2023/07/17 12:23:21;;;;;;;3.73;3.43;;;32.50;45.40;;;;;;5068074;28;20462;-82
2023/07/17 12:25:49;;;;;;;3.17;2.90;;;33.60;43.40;;;;;;5052582;28;20463;-82
2023/07/17 12:28:17;;;;;;;3.43;3.23;;;34.60;41.20;;;;;;5055627;28;20458;-83
2023/07/17 12:30:45;;;;;;;6.10;2.53;;;35.30;39.90;;;;;;5051059;28;20443;-82
2023/07/17 12:33:15;;;;;;;5.23;3.40;;;36.00;38.20;;;;;;5052030;28;20466;-82
2023/07/17 12:35:45;;;;;;;3.90;2.90;;;35.50;39.30;;;;;;5050930;28;20442;-82
2023/07/17 12:38:12;;;;;;;3.13;2.87;;;35.90;38.80;;;;;;5055675;28;20813;-82
2023/07/17 12:40:40;;;;;;;3.73;3.43;;;36.60;37.50;;;;;;5058050;28;20508;-82
2023/07/17 12:43:08;;;;;;;3.23;3.00;;;37.10;36.60;;;;;;5054147;28;20477;-82
2023/07/17 12:45:36;;;;;;;2.90;2.70;;;37.30;36.40;;;;;;5054126;28;20536;-82
2023/07/17 12:48:06;;;;;;;3.20;3.00;;;37.30;36.30;;;;;;5057556;28;20477;-82
2023/07/17 12:50:35;;;;;;;3.43;3.13;;;37.30;36.30;;;;;;5051091;28;20525;-82
2023/07/17 12:53:03;;;;;;;2.97;2.50;;;36.80;36.40;;;;;;5054438;28;20439;-81